createdAt,value
2023-11-08T00:00:18.183Z,83.04
2023-11-08T00:02:44.927Z,81.75
2023-11-08T00:05:11.654Z,82.84
2023-11-08T00:07:41.312Z,82.32
2023-11-08T00:10:13.818Z,82.41
2023-11-08T00:12:40.991Z,82.85
2023-11-08T00:15:12.169Z,82.90
2023-11-08T00:17:39.341Z,83.68
2023-11-08T00:20:11.114Z,82.44
2023-11-08T00:22:40.700Z,82.35
2023-11-08T00:25:07.572Z,81.78
2023-11-08T00:27:34.399Z,82.14
2023-11-08T00:30:07.240Z,81.89
2023-11-08T00:32:34.056Z,82.66
2023-11-08T00:35:00.824Z,81.87
2023-11-08T00:37:27.706Z,82.59
2023-11-08T00:39:54.344Z,82.73
2023-11-08T00:42:22.753Z,82.96
2023-11-08T00:44:49.457Z,82.55
2023-11-08T00:47:19.502Z,82.31
2023-11-08T00:49:48.634Z,82.80
2023-11-08T00:52:15.915Z,82.71
2023-11-08T00:54:42.678Z,83.64
2023-11-08T00:57:09.624Z,83.20
2023-11-08T00:59:39.767Z,82.37
2023-11-08T01:02:09.840Z,81.83
2023-11-08T01:04:36.899Z,81.60
2023-11-08T01:07:08.959Z,81.43
2023-11-08T01:09:36.159Z,81.10
2023-11-08T01:12:04.591Z,81.94
2023-11-08T01:14:31.434Z,82.87
2023-11-08T01:16:58.103Z,82.18
2023-11-08T01:19:26.247Z,82.89
2023-11-08T01:21:53.465Z,81.26
2023-11-08T01:24:20.981Z,81.79
2023-11-08T01:26:51.663Z,81.25
2023-11-08T01:29:18.353Z,81.33
2023-11-08T01:31:45.715Z,82.32
2023-11-08T01:34:13.290Z,81.81
2023-11-08T01:36:40.093Z,81.90
2023-11-08T01:39:10.049Z,82.75
2023-11-08T01:41:50.075Z,81.50
2023-11-08T01:44:19.557Z,82.41
2023-11-08T01:46:54.706Z,82.06
2023-11-08T01:49:22.012Z,81.62
2023-11-08T01:51:51.894Z,81.52
2023-11-08T01:54:29.246Z,81.21
2023-11-08T01:56:56.305Z,81.75
2023-11-08T01:59:27.472Z,81.64
2023-11-08T02:01:58.669Z,80.98
2023-11-08T02:04:26.062Z,81.37
2023-11-08T02:06:54.485Z,81.30
2023-11-08T02:09:21.554Z,81.18
2023-11-08T02:11:54.690Z,81.59
2023-11-08T02:14:23.659Z,80.65
2023-11-08T02:16:50.267Z,81.63
2023-11-08T02:19:16.963Z,81.42
2023-11-08T02:21:44.207Z,81.61
2023-11-08T02:24:24.412Z,80.55
2023-11-08T02:26:53.179Z,80.43
2023-11-08T02:29:24.083Z,81.46
2023-11-08T02:31:53.776Z,81.13
2023-11-08T02:34:20.814Z,82.55
2023-11-08T02:36:50.708Z,81.92
2023-11-08T02:39:17.562Z,81.26
2023-11-08T02:41:44.271Z,81.58
2023-11-08T02:44:14.223Z,81.52
2023-11-08T02:46:45.965Z,81.59
2023-11-08T02:49:16.166Z,81.66
2023-11-08T02:51:44.600Z,81.34
2023-11-08T02:56:51.899Z,82.06
2023-11-08T02:59:18.548Z,81.19
2023-11-08T03:01:45.327Z,80.58
2023-11-08T03:04:12.334Z,80.78
2023-11-08T03:06:44.215Z,79.77
2023-11-08T03:09:12.240Z,79.72
2023-11-08T03:11:41.844Z,79.89
2023-11-08T03:14:08.635Z,80.81
2023-11-08T03:16:35.810Z,79.60
2023-11-08T03:19:02.955Z,79.08
2023-11-08T03:21:29.613Z,80.08
2023-11-08T03:23:56.355Z,79.43
2023-11-08T03:26:23.320Z,80.61
2023-11-08T03:28:50.233Z,79.43
2023-11-08T03:31:18.432Z,79.84
2023-11-08T03:33:45.272Z,80.40
2023-11-08T03:36:14.828Z,80.33
2023-11-08T03:38:45.238Z,80.68
2023-11-08T03:41:12.041Z,81.07
2023-11-08T03:43:39.180Z,80.59
2023-11-08T03:46:05.816Z,81.05
2023-11-08T03:48:32.631Z,80.67
2023-11-08T03:51:02.688Z,80.85
2023-11-08T03:53:29.940Z,81.11
2023-11-08T03:55:59.744Z,82.04
2023-11-08T03:58:26.384Z,82.02
2023-11-08T04:00:53.052Z,81.53
2023-11-08T04:03:23.049Z,81.84
2023-11-08T04:05:49.730Z,81.90
2023-11-08T04:08:18.864Z,82.58
2023-11-08T04:10:45.536Z,82.52
2023-11-08T04:13:14.400Z,82.66
2023-11-08T04:15:41.094Z,82.65
2023-11-08T04:18:08.221Z,82.38
2023-11-08T04:20:39.701Z,82.28
2023-11-08T04:23:09.718Z,83.68
2023-11-08T04:25:38.370Z,83.36
2023-11-08T04:28:05.135Z,83.43
2023-11-08T04:30:31.939Z,82.88
2023-11-08T04:33:01.107Z,82.11
2023-11-08T04:35:30.203Z,81.92
2023-11-08T04:37:58.539Z,82.69
2023-11-08T04:40:29.293Z,81.99
2023-11-08T04:42:58.598Z,83.04
2023-11-08T04:45:26.033Z,83.78
2023-11-08T04:47:52.753Z,83.87
2023-11-08T04:50:21.902Z,84.42
2023-11-08T04:52:50.709Z,84.51
2023-11-08T04:55:17.543Z,83.45
2023-11-08T04:57:50.031Z,83.48
2023-11-08T05:00:19.573Z,84.39
2023-11-08T05:02:49.221Z,84.25
2023-11-08T05:05:16.443Z,84.04
2023-11-08T05:07:48.448Z,84.86
2023-11-08T05:10:15.257Z,84.13
2023-11-08T05:12:51.290Z,85.09
2023-11-08T05:15:23.077Z,84.80
2023-11-08T05:17:49.895Z,84.75
2023-11-08T05:20:18.859Z,84.89
2023-11-08T05:22:48.245Z,85.31
2023-11-08T05:25:16.592Z,84.23
2023-11-08T05:27:46.062Z,86.03
2023-11-08T05:30:12.796Z,85.50
2023-11-08T05:35:24.712Z,85.68
2023-11-08T05:37:51.869Z,85.35
2023-11-08T05:40:19.597Z,85.23
2023-11-08T05:42:46.278Z,85.66
2023-11-08T05:45:13.002Z,85.29
2023-11-08T05:47:45.702Z,85.40
2023-11-08T05:50:16.932Z,85.62
2023-11-08T05:52:45.226Z,84.89
2023-11-08T05:55:14.153Z,83.86
2023-11-08T05:57:49.969Z,85.03
2023-11-08T06:00:19.905Z,85.75
2023-11-08T06:02:50.535Z,84.56
2023-11-08T06:05:17.455Z,85.42
2023-11-08T06:07:45.672Z,84.54
2023-11-08T06:10:12.620Z,84.62
2023-11-08T06:12:39.319Z,86.71
2023-11-08T06:15:11.951Z,86.19
2023-11-08T06:17:39.200Z,85.78
2023-11-08T06:20:10.018Z,85.46
2023-11-08T06:22:45.518Z,87.14
2023-11-08T06:25:12.220Z,86.10
2023-11-08T06:27:38.909Z,86.32
2023-11-08T06:30:05.977Z,85.91
2023-11-08T06:32:32.648Z,85.88
2023-11-08T06:35:04.124Z,85.81
2023-11-08T06:37:31.293Z,84.81
2023-11-08T06:39:58.455Z,85.93
2023-11-08T06:42:25.415Z,85.27
2023-11-08T06:44:56.158Z,85.64
2023-11-08T06:47:23.026Z,86.28
2023-11-08T06:49:52.744Z,85.83
2023-11-08T06:52:19.412Z,85.28
2023-11-08T06:54:46.279Z,85.62
2023-11-08T06:57:17.798Z,86.14
2023-11-08T06:59:49.921Z,85.42
2023-11-08T07:02:18.890Z,85.44
2023-11-08T07:04:45.984Z,86.06
2023-11-08T07:07:13.067Z,85.75
2023-11-08T07:09:39.877Z,85.08
2023-11-08T07:12:08.272Z,85.05
2023-11-08T07:14:38.284Z,85.04
2023-11-08T07:17:06.637Z,84.90
2023-11-08T07:19:34.174Z,85.70
2023-11-08T07:22:04.839Z,84.99
2023-11-08T07:24:54.948Z,85.38
2023-11-08T07:27:26.765Z,86.39
2023-11-08T07:29:54.792Z,84.55
2023-11-08T07:32:21.374Z,85.03
2023-11-08T07:34:49.333Z,84.79
2023-11-08T07:37:23.397Z,84.87
2023-11-08T07:39:50.111Z,84.85
2023-11-08T07:42:17.249Z,85.57
2023-11-08T07:44:47.985Z,85.63
2023-11-08T07:47:15.291Z,84.65
2023-11-08T07:49:42.071Z,85.69
2023-11-08T07:52:09.157Z,86.15
2023-11-08T07:57:16.694Z,85.64
2023-11-08T07:59:43.477Z,85.13
2023-11-08T08:02:15.519Z,85.11
2023-11-08T08:04:42.392Z,83.78
2023-11-08T08:07:15.308Z,84.69
2023-11-08T08:09:42.042Z,84.62
2023-11-08T08:12:08.679Z,84.22
2023-11-08T08:14:36.773Z,84.51
2023-11-08T08:17:06.361Z,84.74
2023-11-08T08:19:33.526Z,85.06
2023-11-08T08:22:02.510Z,85.31
2023-11-08T08:24:29.677Z,85.46
2023-11-08T08:27:00.598Z,85.82
2023-11-08T08:29:28.609Z,85.31
2023-11-08T08:31:55.259Z,85.45
2023-11-08T08:34:28.773Z,85.88
2023-11-08T08:36:58.614Z,84.74
2023-11-08T08:39:29.019Z,84.81
2023-11-08T08:41:56.596Z,84.50
2023-11-08T08:44:23.535Z,84.86
2023-11-08T08:46:51.095Z,83.38
2023-11-08T08:49:20.043Z,83.04
2023-11-08T08:51:51.641Z,82.72
2023-11-08T08:54:22.505Z,82.15
2023-11-08T08:56:52.585Z,82.60
2023-11-08T08:59:19.254Z,81.82
2023-11-08T09:01:45.824Z,83.43
2023-11-08T09:04:15.554Z,81.38
2023-11-08T09:06:45.081Z,81.61
2023-11-08T09:09:14.424Z,82.33
2023-11-08T09:11:42.163Z,81.66
2023-11-08T09:14:09.508Z,82.02
2023-11-08T09:16:47.038Z,81.58
2023-11-08T09:22:07.760Z,80.87
2023-11-08T09:24:34.439Z,81.79
2023-11-08T09:27:06.117Z,80.81
2023-11-08T09:29:33.961Z,81.65
2023-11-08T09:32:02.174Z,81.78
2023-11-08T09:34:29.347Z,81.21
2023-11-08T09:36:58.089Z,81.97
2023-11-08T09:39:25.893Z,80.53
2023-11-08T09:41:53.633Z,82.61
2023-11-08T09:44:22.110Z,80.21
2023-11-08T09:46:50.298Z,80.63
2023-11-08T09:49:17.195Z,80.04
2023-11-08T09:51:46.836Z,79.38
2023-11-08T09:54:14.021Z,79.28
2023-11-08T09:56:57.076Z,79.46
2023-11-08T09:59:27.332Z,78.87
2023-11-08T10:02:12.899Z,78.16
2023-11-08T10:04:59.282Z,77.85
2023-11-08T10:07:26.511Z,77.83
2023-11-08T10:09:54.380Z,77.07
2023-11-08T10:12:21.719Z,77.02
2023-11-08T10:14:58.467Z,77.58
2023-11-08T10:19:29.823Z,78.19
2023-11-08T10:20:28.252Z,78.80
2023-11-08T10:22:55.873Z,77.56
2023-11-08T10:25:27.053Z,77.09
2023-11-08T10:28:02.817Z,78.06
2023-11-08T10:30:33.021Z,78.21
2023-11-08T10:33:22.570Z,79.26
2023-11-08T10:35:50.972Z,78.85
2023-11-08T10:38:19.983Z,79.72
2023-11-08T10:40:50.426Z,79.56
2023-11-08T10:43:24.911Z,78.73
2023-11-08T10:45:51.624Z,78.59
2023-11-08T10:48:21.065Z,77.51
2023-11-08T10:50:52.366Z,72.64
2023-11-08T10:53:22.033Z,71.78
2023-11-08T10:55:49.651Z,72.50
2023-11-08T10:58:16.861Z,73.13
2023-11-08T11:00:45.466Z,73.50
2023-11-08T11:03:15.743Z,74.84
2023-11-08T11:05:47.068Z,75.14
2023-11-08T11:08:20.099Z,74.63
2023-11-08T11:10:53.348Z,76.32
2023-11-08T11:13:27.413Z,75.08
2023-11-08T11:16:07.959Z,72.33
2023-11-08T11:18:38.321Z,69.49
2023-11-08T11:21:21.270Z,68.70
2023-11-08T11:23:51.029Z,70.03
2023-11-08T11:26:40.178Z,71.54
2023-11-08T11:29:08.696Z,68.86
2023-11-08T11:31:39.935Z,68.79
2023-11-08T11:34:21.908Z,68.41
2023-11-08T11:37:07.875Z,70.15
2023-11-08T11:42:18.172Z,71.78
2023-11-08T11:45:04.045Z,72.69
2023-11-08T11:47:32.011Z,72.83
2023-11-08T11:50:11.773Z,71.99
2023-11-08T11:52:38.914Z,72.80
2023-11-08T11:55:12.243Z,73.10
2023-11-08T11:57:41.472Z,71.81
2023-11-08T12:00:12.267Z,71.14
2023-11-08T12:02:49.438Z,70.75
2023-11-08T12:05:16.307Z,70.13
2023-11-08T12:07:49.054Z,71.32
2023-11-08T12:10:22.499Z,70.26
2023-11-08T12:12:51.228Z,70.35
2023-11-08T12:15:23.815Z,70.17
2023-11-08T12:17:52.904Z,68.95
2023-11-08T12:20:26.171Z,68.06
2023-11-08T12:22:55.827Z,69.22
2023-11-08T12:25:25.366Z,68.51
2023-11-08T12:27:58.610Z,67.49
2023-11-08T12:30:27.819Z,66.33
2023-11-08T12:33:00.002Z,64.50
2023-11-08T12:35:27.305Z,64.57
2023-11-08T12:37:59.067Z,66.56
2023-11-08T12:40:27.891Z,66.02
2023-11-08T12:43:55.958Z,66.93
2023-11-08T12:46:35.603Z,66.03
2023-11-08T12:49:00.155Z,66.38
2023-11-08T12:51:33.848Z,65.34
2023-11-08T12:54:03.264Z,65.77
2023-11-08T12:56:40.443Z,65.35
2023-11-08T12:59:17.502Z,65.55
2023-11-08T13:01:50.695Z,66.00
2023-11-08T13:04:20.093Z,66.16
2023-11-08T13:06:49.150Z,66.61
2023-11-08T13:09:19.266Z,66.30
2023-11-08T13:11:46.298Z,66.37
2023-11-08T13:14:13.650Z,66.88
2023-11-08T13:16:43.556Z,67.38
2023-11-08T13:19:12.546Z,66.89
2023-11-08T13:21:41.800Z,67.14
2023-11-08T13:24:10.912Z,67.31
2023-11-08T13:26:42.735Z,67.60
2023-11-08T13:29:16.593Z,67.84
2023-11-08T13:31:43.422Z,66.64
2023-11-08T13:34:10.233Z,66.52
2023-11-08T13:36:39.076Z,67.55
2023-11-08T13:39:10.614Z,68.43
2023-11-08T13:41:37.290Z,68.44
2023-11-08T13:44:04.072Z,68.11
2023-11-08T13:46:34.033Z,68.21
2023-11-08T13:49:02.057Z,67.43
2023-11-08T13:51:31.854Z,66.83
2023-11-08T13:53:58.588Z,66.27
2023-11-08T13:56:25.450Z,66.42
2023-11-08T13:58:52.214Z,67.86
2023-11-08T14:01:30.682Z,69.11
2023-11-08T14:03:59.424Z,69.64
2023-11-08T14:06:32.652Z,69.37
2023-11-08T14:09:04.544Z,69.06
2023-11-08T14:11:43.503Z,69.23
2023-11-08T14:14:10.180Z,68.71
2023-11-08T14:16:37.961Z,68.76
2023-11-08T14:19:06.310Z,68.88
2023-11-08T14:21:37.354Z,69.88
2023-11-08T14:24:04.214Z,70.41
2023-11-08T14:26:35.506Z,70.19
2023-11-08T14:29:03.373Z,70.27
2023-11-08T14:31:30.543Z,69.38
2023-11-08T14:34:01.669Z,69.39
2023-11-08T14:36:55.380Z,68.98
2023-11-08T14:39:27.237Z,69.04
2023-11-08T14:42:29.862Z,69.36
2023-11-08T14:44:41.860Z,69.07
2023-11-08T14:47:08.526Z,69.31
2023-11-08T14:49:35.813Z,70.80
2023-11-08T14:52:03.514Z,70.89
2023-11-08T14:54:30.262Z,71.47
2023-11-08T14:56:58.937Z,71.08
2023-11-08T14:59:27.522Z,71.50
2023-11-08T15:01:58.982Z,72.63
2023-11-08T15:04:26.711Z,72.38
2023-11-08T15:06:53.437Z,72.52
2023-11-08T15:09:53.047Z,72.76
2023-11-08T15:12:11.995Z,71.78
2023-11-08T15:14:38.932Z,71.73
2023-11-08T15:17:05.714Z,71.60
2023-11-08T15:19:34.816Z,72.13
2023-11-08T15:22:03.999Z,72.06
2023-11-08T15:24:33.614Z,72.27
2023-11-08T15:27:01.344Z,71.86
2023-11-08T15:29:31.317Z,72.51
2023-11-08T15:32:01.783Z,71.68
2023-11-08T15:34:29.460Z,72.24
2023-11-08T15:36:58.967Z,72.86
2023-11-08T15:39:26.488Z,72.14
2023-11-08T15:41:55.718Z,72.15
2023-11-08T15:44:25.525Z,72.80
2023-11-08T15:46:53.102Z,73.10
2023-11-08T15:49:22.638Z,72.47
2023-11-08T15:51:52.728Z,73.59
2023-11-08T15:54:19.585Z,72.61
2023-11-08T15:56:49.321Z,73.32
2023-11-08T15:59:17.190Z,73.46
2023-11-08T16:01:47.081Z,73.29
2023-11-08T16:04:17.056Z,74.16
2023-11-08T16:06:44.031Z,73.42
2023-11-08T16:09:12.409Z,73.19
2023-11-08T16:11:40.686Z,73.95
2023-11-08T16:14:08.093Z,73.85
2023-11-08T16:16:42.845Z,73.98
2023-11-08T16:19:13.531Z,73.27
2023-11-08T16:21:40.428Z,73.06
2023-11-08T16:24:30.216Z,73.59
2023-11-08T16:26:56.865Z,73.03
2023-11-08T16:29:50.848Z,73.51
2023-11-08T16:32:34.975Z,73.48
2023-11-08T16:35:01.690Z,73.11
2023-11-08T16:37:28.498Z,72.28
2023-11-08T16:39:55.232Z,72.34
2023-11-08T16:42:23.368Z,72.56
2023-11-08T16:44:50.620Z,72.62
2023-11-08T16:47:17.579Z,72.05
2023-11-08T16:49:47.662Z,72.23
2023-11-08T16:52:15.538Z,72.76
2023-11-08T16:54:46.088Z,72.10
2023-11-08T16:57:12.784Z,71.79
2023-11-08T16:59:40.658Z,71.17
2023-11-08T17:02:07.721Z,71.32
2023-11-08T17:04:41.556Z,70.33
2023-11-08T17:07:08.592Z,69.58
2023-11-08T17:09:36.683Z,69.89
2023-11-08T17:12:06.263Z,69.25
2023-11-08T17:14:38.159Z,69.16
2023-11-08T17:17:13.598Z,69.03
2023-11-08T17:19:48.718Z,70.03
2023-11-08T17:22:18.313Z,69.15
2023-11-08T17:24:50.686Z,69.06
2023-11-08T17:27:18.587Z,68.97
2023-11-08T17:29:48.773Z,68.39
2023-11-08T17:32:18.552Z,69.04
2023-11-08T17:34:48.712Z,67.94
2023-11-08T17:37:17.685Z,69.12
2023-11-08T17:39:44.418Z,68.34
2023-11-08T17:42:11.351Z,68.50
2023-11-08T17:44:38.078Z,67.83
2023-11-08T17:47:06.479Z,68.10
2023-11-08T17:49:33.191Z,67.45
2023-11-08T17:52:05.547Z,67.82
2023-11-08T17:54:33.903Z,68.06
2023-11-08T17:57:01.899Z,67.94
2023-11-08T17:59:32.341Z,67.09
2023-11-08T18:01:59.486Z,67.47
2023-11-08T18:04:33.657Z,66.63
2023-11-08T18:07:06.230Z,68.48
2023-11-08T18:09:35.978Z,67.66
2023-11-08T18:12:03.952Z,67.77
2023-11-08T18:14:33.314Z,67.80
2023-11-08T18:17:00.016Z,67.51
2023-11-08T18:19:28.991Z,67.39
2023-11-08T18:21:55.758Z,66.91
2023-11-08T18:24:30.118Z,66.71
2023-11-08T18:26:59.057Z,66.52
2023-11-08T18:29:33.165Z,66.03
2023-11-08T18:32:05.857Z,67.08
2023-11-08T18:34:33.337Z,67.72
2023-11-08T18:37:10.540Z,66.43
2023-11-08T18:39:39.499Z,66.28
2023-11-08T18:42:06.272Z,66.76
2023-11-08T18:44:36.666Z,67.15
2023-11-08T18:47:04.720Z,66.32
2023-11-08T18:49:37.572Z,67.56
2023-11-08T18:52:18.744Z,67.67
2023-11-08T18:54:47.202Z,68.25
2023-11-08T18:57:13.898Z,67.10
2023-11-08T18:59:41.786Z,67.54
2023-11-08T19:02:11.944Z,68.25
2023-11-08T19:04:38.778Z,69.22
2023-11-08T19:07:08.394Z,69.49
2023-11-08T19:09:38.221Z,70.34
2023-11-08T19:12:05.367Z,69.54
2023-11-08T19:14:35.664Z,70.67
2023-11-08T19:17:05.713Z,70.50
2023-11-08T19:19:33.216Z,70.77
2023-11-08T19:22:01.868Z,71.85
2023-11-08T19:24:28.794Z,71.28
2023-11-08T19:26:55.564Z,71.73
2023-11-08T19:29:22.268Z,72.25
2023-11-08T19:31:50.932Z,70.75
2023-11-08T19:34:19.083Z,70.85
2023-11-08T19:36:53.692Z,71.97
2023-11-08T19:39:22.710Z,71.27
2023-11-08T19:41:50.508Z,72.28
2023-11-08T19:44:19.973Z,72.69
2023-11-08T19:46:47.135Z,72.60
2023-11-08T19:49:14.035Z,72.29
2023-11-08T19:51:41.131Z,72.37
2023-11-08T19:54:08.016Z,71.85
2023-11-08T19:56:35.913Z,72.09
2023-11-08T19:59:04.565Z,72.59
2023-11-08T20:01:31.323Z,71.70
2023-11-08T20:03:58.074Z,71.95
2023-11-08T20:06:32.143Z,73.32
2023-11-08T20:08:58.895Z,72.41
2023-11-08T20:11:30.247Z,71.84
2023-11-08T20:14:00.455Z,71.78
2023-11-08T20:16:28.258Z,73.00
2023-11-08T20:18:55.127Z,72.54
2023-11-08T20:21:25.379Z,72.36
2023-11-08T20:23:53.639Z,72.11
2023-11-08T20:26:21.575Z,72.66
2023-11-08T20:28:53.954Z,72.54
2023-11-08T20:31:20.816Z,71.67
2023-11-08T20:33:47.514Z,72.00
2023-11-08T20:36:20.201Z,71.82
2023-11-08T20:38:47.225Z,71.75
2023-11-08T20:41:15.189Z,71.22
2023-11-08T20:43:42.337Z,72.30
2023-11-08T20:46:13.984Z,71.56
2023-11-08T20:48:49.747Z,71.50
2023-11-08T20:51:19.017Z,71.77
2023-11-08T20:53:45.754Z,72.68
2023-11-08T20:56:13.085Z,72.60
2023-11-08T20:58:43.028Z,72.07
2023-11-08T21:01:09.866Z,71.90
2023-11-08T21:03:36.600Z,72.18
2023-11-08T21:06:03.521Z,72.52
2023-11-08T21:08:30.593Z,72.45
2023-11-08T21:10:57.377Z,72.23
2023-11-08T21:13:27.206Z,71.94
2023-11-08T21:15:54.660Z,71.67
2023-11-08T21:18:23.586Z,71.46
2023-11-08T21:20:53.142Z,71.42
2023-11-08T21:23:19.913Z,71.97
2023-11-08T21:25:50.340Z,71.90
2023-11-08T21:28:24.142Z,72.52
2023-11-08T21:30:52.074Z,72.06
2023-11-08T21:33:20.760Z,73.71
2023-11-08T21:35:48.155Z,72.82
2023-11-08T21:38:16.934Z,72.24
2023-11-08T21:40:51.315Z,71.82
2023-11-08T21:43:19.290Z,73.02
2023-11-08T21:45:51.474Z,72.37
2023-11-08T21:48:23.427Z,71.94
2023-11-08T21:50:57.737Z,72.61
2023-11-08T21:53:25.602Z,72.64
2023-11-08T21:55:53.663Z,73.29
2023-11-08T21:58:23.668Z,72.04
2023-11-08T22:00:53.809Z,72.33
2023-11-08T22:03:21.422Z,71.89
2023-11-08T22:05:51.603Z,72.13
2023-11-08T22:08:19.040Z,71.87
2023-11-08T22:10:48.977Z,72.25
2023-11-08T22:13:16.055Z,71.54
2023-11-08T22:15:42.887Z,71.19
2023-11-08T22:18:09.726Z,71.71
2023-11-08T22:20:36.772Z,72.35
2023-11-08T22:23:04.723Z,72.25
2023-11-08T22:25:31.784Z,73.04
2023-11-08T22:28:00.454Z,73.91
2023-11-08T22:30:27.394Z,72.56
2023-11-08T22:32:54.251Z,73.87
2023-11-08T22:35:25.740Z,74.64
2023-11-08T22:37:55.130Z,75.94
2023-11-08T22:40:21.990Z,77.78
2023-11-08T22:42:48.708Z,77.95
2023-11-08T22:45:36.212Z,78.54
2023-11-08T22:48:08.548Z,80.67
2023-11-08T22:50:35.386Z,82.51
2023-11-08T22:53:06.144Z,83.43
2023-11-08T22:55:33.986Z,84.33
2023-11-08T22:58:01.808Z,84.73
2023-11-08T23:00:34.375Z,84.10
2023-11-08T23:03:03.521Z,83.94
2023-11-08T23:05:35.854Z,85.86
2023-11-08T23:08:05.906Z,84.90
2023-11-08T23:10:32.689Z,85.96
2023-11-08T23:13:07.275Z,86.69
2023-11-08T23:15:41.258Z,87.61
2023-11-08T23:18:08.979Z,87.94
2023-11-08T23:20:40.835Z,88.12
2023-11-08T23:23:09.992Z,88.13
2023-11-08T23:25:38.088Z,89.13
2023-11-08T23:28:04.756Z,89.24
2023-11-08T23:30:51.766Z,90.21
2023-11-08T23:33:21.107Z,90.50
2023-11-08T23:35:47.744Z,91.29
2023-11-08T23:38:15.586Z,91.03
2023-11-08T23:40:43.397Z,90.77
2023-11-08T23:43:10.503Z,91.34
2023-11-08T23:45:37.229Z,91.03
2023-11-08T23:48:10.079Z,91.28
2023-11-08T23:50:38.312Z,91.02
2023-11-08T23:53:05.285Z,91.46
2023-11-08T23:55:34.367Z,92.61
2023-11-08T23:58:01.112Z,92.33
